sensor_id;sensor_type;location;lat;lon;timestamp;pressure;altitude;pressure_sealevel;temperature;humidity
43770;BME280;6597;52.218;9.882;2022-09-09T00:02:04;100125.00;;;13.76;100.00
43770;BME280;6597;52.218;9.882;2022-09-09T00:04:37;100124.16;;;13.76;100.00
43770;BME280;6597;52.218;9.882;2022-09-09T00:07:10;100123.22;;;13.77;100.00
43770;BME280;6597;52.218;9.882;2022-09-09T00:09:45;100124.81;;;13.79;100.00
43770;BME280;6597;52.218;9.882;2022-09-09T00:12:15;100122.44;;;13.75;100.00
43770;BME280;6597;52.218;9.882;2022-09-09T00:14:48;100118.03;;;13.75;100.00
43770;BME280;6597;52.218;9.882;2022-09-09T00:17:26;100122.53;;;13.73;100.00
43770;BME280;6597;52.218;9.882;2022-09-09T00:20:02;100117.34;;;13.72;100.00
43770;BME280;6597;52.218;9.882;2022-09-09T00:22:33;100126.28;;;13.69;100.00
43770;BME280;6597;52.218;9.882;2022-09-09T00:25:10;100123.66;;;13.69;100.00
43770;BME280;6597;52.218;9.882;2022-09-09T00:27:41;100114.03;;;13.68;100.00
43770;BME280;6597;52.218;9.882;2022-09-09T00:30:15;100116.59;;;13.69;100.00
43770;BME280;6597;52.218;9.882;2022-09-09T00:32:45;100116.50;;;13.71;100.00
43770;BME280;6597;52.218;9.882;2022-09-09T00:35:16;100122.53;;;13.73;100.00
43770;BME280;6597;52.218;9.882;2022-09-09T00:37:47;100123.22;;;13.77;100.00
43770;BME280;6597;52.218;9.882;2022-09-09T00:40:22;100112.66;;;13.77;100.00
43770;BME280;6597;52.218;9.882;2022-09-09T00:42:58;100118.78;;;13.77;100.00
43770;BME280;6597;52.218;9.882;2022-09-09T00:48:18;100117.94;;;13.77;100.00
43770;BME280;6597;52.218;9.882;2022-09-09T00:50:49;100110.28;;;13.72;100.00
43770;BME280;6597;52.218;9.882;2022-09-09T00:53:31;100121.88;;;13.69;100.00
43770;BME280;6597;52.218;9.882;2022-09-09T00:56:11;100109.72;;;13.67;100.00
43770;BME280;6597;52.218;9.882;2022-09-09T00:58:42;100120.41;;;13.64;100.00
43770;BME280;6597;52.218;9.882;2022-09-09T01:01:09;100120.78;;;13.58;100.00
43770;BME280;6597;52.218;9.882;2022-09-09T01:03:40;100115.69;;;13.55;100.00
43770;BME280;6597;52.218;9.882;2022-09-09T01:06:16;100126.41;;;13.52;100.00
43770;BME280;6597;52.218;9.882;2022-09-09T01:09:05;100124.88;;;13.48;100.00
43770;BME280;6597;52.218;9.882;2022-09-09T01:11:41;100118.00;;;13.45;100.00
43770;BME280;6597;52.218;9.882;2022-09-09T01:14:19;100123.34;;;13.44;100.00
43770;BME280;6597;52.218;9.882;2022-09-09T01:16:54;100121.00;;;13.39;100.00
43770;BME280;6597;52.218;9.882;2022-09-09T01:19:30;100125.50;;;13.37;100.00
43770;BME280;6597;52.218;9.882;2022-09-09T01:22:07;100130.84;;;13.35;100.00
43770;BME280;6597;52.218;9.882;2022-09-09T01:24:44;100127.38;;;13.35;100.00
43770;BME280;6597;52.218;9.882;2022-09-09T01:27:33;100125.50;;;13.37;100.00
43770;BME280;6597;52.218;9.882;2022-09-09T01:30:02;100115.81;;;13.37;100.00
43770;BME280;6597;52.218;9.882;2022-09-09T01:32:41;100107.91;;;13.37;100.00
43770;BME280;6597;52.218;9.882;2022-09-09T01:35:11;100098.97;;;13.40;100.00
43770;BME280;6597;52.218;9.882;2022-09-09T01:37:40;100104.22;;;13.40;100.00
43770;BME280;6597;52.218;9.882;2022-09-09T01:40:07;100107.81;;;13.39;100.00
43770;BME280;6597;52.218;9.882;2022-09-09T01:42:37;100108.84;;;13.36;100.00
43770;BME280;6597;52.218;9.882;2022-09-09T01:45:04;100109.91;;;13.32;100.00
43770;BME280;6597;52.218;9.882;2022-09-09T01:47:32;100112.72;;;13.29;100.00
43770;BME280;6597;52.218;9.882;2022-09-09T01:50:25;100119.88;;;13.27;100.00
43770;BME280;6597;52.218;9.882;2022-09-09T01:52:55;100122.69;;;13.24;100.00
43770;BME280;6597;52.218;9.882;2022-09-09T01:55:29;100122.69;;;13.24;100.00
43770;BME280;6597;52.218;9.882;2022-09-09T01:58:11;100121.84;;;13.24;100.00
43770;BME280;6597;52.218;9.882;2022-09-09T02:00:55;100122.50;;;13.27;100.00
43770;BME280;6597;52.218;9.882;2022-09-09T02:03:25;100118.00;;;13.29;100.00
43770;BME280;6597;52.218;9.882;2022-09-09T02:06:05;100123.09;;;13.32;100.00
43770;BME280;6597;52.218;9.882;2022-09-09T02:08:42;100118.00;;;13.29;100.00
43770;BME280;6597;52.218;9.882;2022-09-09T02:11:14;100125.72;;;13.32;100.00
43770;BME280;6597;52.218;9.882;2022-09-09T02:14:05;100118.66;;;13.33;100.00
43770;BME280;6597;52.218;9.882;2022-09-09T02:16:40;100119.59;;;13.32;100.00
43770;BME280;6597;52.218;9.882;2022-09-09T02:19:11;100113.50;;;13.31;100.00
43770;BME280;6597;52.218;9.882;2022-09-09T02:22:01;100124.03;;;13.31;100.00
43770;BME280;6597;52.218;9.882;2022-09-09T02:24:30;100125.72;;;13.32;100.00
43770;BME280;6597;52.218;9.882;2022-09-09T02:27:10;100117.59;;;13.37;100.00
43770;BME280;6597;52.218;9.882;2022-09-09T02:29:40;100115.72;;;13.39;100.00
43770;BME280;6597;52.218;9.882;2022-09-09T02:32:11;100110.53;;;13.37;100.00
43770;BME280;6597;52.218;9.882;2022-09-09T02:34:45;100104.31;;;13.38;100.00
43770;BME280;6597;52.218;9.882;2022-09-09T02:37:15;100111.38;;;13.38;100.00
43770;BME280;6597;52.218;9.882;2022-09-09T02:39:46;100105.94;;;13.41;100.00
43770;BME280;6597;52.218;9.882;2022-09-09T02:42:16;100100.38;;;13.46;100.00
43770;BME280;6597;52.218;9.882;2022-09-09T02:44:45;100101.16;;;13.48;100.00
43770;BME280;6597;52.218;9.882;2022-09-09T02:47:24;100100.97;;;13.51;100.00
43770;BME280;6597;52.218;9.882;2022-09-09T02:50:02;100101.63;;;13.54;100.00
43770;BME280;6597;52.218;9.882;2022-09-09T02:52:38;100112.09;;;13.56;100.00
43770;BME280;6597;52.218;9.882;2022-09-09T02:55:15;100106.47;;;13.62;100.00
43770;BME280;6597;52.218;9.882;2022-09-09T02:57:47;100111.22;;;13.71;100.00
43770;BME280;6597;52.218;9.882;2022-09-09T03:00:22;100103.13;;;13.74;100.00
43770;BME280;6597;52.218;9.882;2022-09-09T03:02:50;100102.84;;;13.79;100.00
43770;BME280;6597;52.218;9.882;2022-09-09T03:05:17;100107.78;;;13.85;100.00
43770;BME280;6597;52.218;9.882;2022-09-09T03:07:44;100100.72;;;13.85;100.00
43770;BME280;6597;52.218;9.882;2022-09-09T03:10:10;100104.09;;;13.87;100.00
43770;BME280;6597;52.218;9.882;2022-09-09T03:12:37;100109.94;;;13.92;100.00
43770;BME280;6597;52.218;9.882;2022-09-09T03:15:05;100113.34;;;13.94;100.00
43770;BME280;6597;52.218;9.882;2022-09-09T03:17:34;100104.50;;;13.95;100.00
43770;BME280;6597;52.218;9.882;2022-09-09T03:20:02;100121.25;;;13.94;100.00
43770;BME280;6597;52.218;9.882;2022-09-09T03:22:29;100113.16;;;13.97;100.00
43770;BME280;6597;52.218;9.882;2022-09-09T03:24:58;100118.28;;;14.00;100.00
43770;BME280;6597;52.218;9.882;2022-09-09T03:27:24;100107.75;;;14.15;100.00
43770;BME280;6597;52.218;9.882;2022-09-09T03:29:51;100106.16;;;14.26;100.00
43770;BME280;6597;52.218;9.882;2022-09-09T03:32:22;100102.97;;;14.36;100.00
43770;BME280;6597;52.218;9.882;2022-09-09T03:34:53;100103.44;;;14.42;100.00
43770;BME280;6597;52.218;9.882;2022-09-09T03:37:20;100094.22;;;14.49;100.00
43770;BME280;6597;52.218;9.882;2022-09-09T03:39:49;100102.59;;;14.56;100.00
43770;BME280;6597;52.218;9.882;2022-09-09T03:42:17;100096.28;;;14.58;100.00
43770;BME280;6597;52.218;9.882;2022-09-09T03:44:45;100096.09;;;14.61;100.00
43770;BME280;6597;52.218;9.882;2022-09-09T03:47:16;100102.91;;;14.66;100.00
43770;BME280;6597;52.218;9.882;2022-09-09T03:49:44;100105.34;;;14.69;100.00
43770;BME280;6597;52.218;9.882;2022-09-09T03:52:13;100100.06;;;14.69;100.00
43770;BME280;6597;52.218;9.882;2022-09-09T03:54:40;100097.44;;;14.69;100.00
43770;BME280;6597;52.218;9.882;2022-09-09T03:57:08;100094.03;;;14.67;100.00
43770;BME280;6597;52.218;9.882;2022-09-09T03:59:34;100094.97;;;14.66;100.00
43770;BME280;6597;52.218;9.882;2022-09-09T04:02:02;100092.44;;;14.64;100.00
43770;BME280;6597;52.218;9.882;2022-09-09T04:04:28;100092.50;;;14.62;100.00
43770;BME280;6597;52.218;9.882;2022-09-09T04:06:55;100090.53;;;14.66;100.00
43770;BME280;6597;52.218;9.882;2022-09-09T04:09:23;100092.34;;;14.66;100.00
43770;BME280;6597;52.218;9.882;2022-09-09T04:11:51;100097.34;;;14.70;100.00
43770;BME280;6597;52.218;9.882;2022-09-09T04:14:18;100100.72;;;14.72;100.00
43770;BME280;6597;52.218;9.882;2022-09-09T04:16:45;100104.97;;;14.75;100.00
43770;BME280;6597;52.218;9.882;2022-09-09T04:19:12;100104.97;;;14.75;100.00
43770;BME280;6597;52.218;9.882;2022-09-09T04:21:41;100109.09;;;14.79;100.00
43770;BME280;6597;52.218;9.882;2022-09-09T04:24:08;100105.88;;;14.88;100.00
43770;BME280;6597;52.218;9.882;2022-09-09T04:26:37;100108.03;;;14.95;100.00
43770;BME280;6597;52.218;9.882;2022-09-09T04:29:04;100100.59;;;15.02;100.00
43770;BME280;6597;52.218;9.882;2022-09-09T04:31:33;100112.66;;;15.06;100.00
43770;BME280;6597;52.218;9.882;2022-09-09T04:34:02;100122.28;;;15.07;100.00
43770;BME280;6597;52.218;9.882;2022-09-09T04:36:31;100121.34;;;15.08;100.00
43770;BME280;6597;52.218;9.882;2022-09-09T04:39:02;100118.03;;;15.05;100.00
43770;BME280;6597;52.218;9.882;2022-09-09T04:41:29;100114.84;;;15.00;100.00
43770;BME280;6597;52.218;9.882;2022-09-09T04:43:58;100116.06;;;14.94;100.00
43770;BME280;6597;52.218;9.882;2022-09-09T04:46:25;100108.97;;;14.94;100.00
43770;BME280;6597;52.218;9.882;2022-09-09T04:48:51;100112.47;;;14.95;100.00
43770;BME280;6597;52.218;9.882;2022-09-09T04:51:19;100123.22;;;14.92;100.00
43770;BME280;6597;52.218;9.882;2022-09-09T04:53:48;100121.94;;;14.85;100.00
43770;BME280;6597;52.218;9.882;2022-09-09T04:56:17;100119.28;;;14.85;100.00
43770;BME280;6597;52.218;9.882;2022-09-09T04:58:49;100116.44;;;14.88;100.00
43770;BME280;6597;52.218;9.882;2022-09-09T05:01:19;100117.31;;;14.88;100.00
43770;BME280;6597;52.218;9.882;2022-09-09T05:03:48;100126.94;;;14.89;100.00
43770;BME280;6597;52.218;9.882;2022-09-09T05:06:21;100121.53;;;14.91;100.00
43770;BME280;6597;52.218;9.882;2022-09-09T05:08:52;100119.19;;;14.86;100.00
43770;BME280;6597;52.218;9.882;2022-09-09T05:11:24;100122.59;;;14.88;100.00
43770;BME280;6597;52.218;9.882;2022-09-09T05:13:54;100133.16;;;14.88;100.00
43770;BME280;6597;52.218;9.882;2022-09-09T05:16:23;100121.00;;;14.86;100.00
43770;BME280;6597;52.218;9.882;2022-09-09T05:18:50;100122.78;;;14.85;100.00
43770;BME280;6597;52.218;9.882;2022-09-09T05:21:18;100121.09;;;14.84;100.00
43770;BME280;6597;52.218;9.882;2022-09-09T05:23:46;100123.72;;;14.84;100.00
43770;BME280;6597;52.218;9.882;2022-09-09T05:26:14;100127.97;;;14.87;100.00
43770;BME280;6597;52.218;9.882;2022-09-09T05:28:41;100121.72;;;14.88;100.00
43770;BME280;6597;52.218;9.882;2022-09-09T05:31:09;100133.81;;;14.92;100.00
43770;BME280;6597;52.218;9.882;2022-09-09T05:33:40;100132.88;;;14.93;100.00
43770;BME280;6597;52.218;9.882;2022-09-09T05:36:09;100130.97;;;14.95;100.00
43770;BME280;6597;52.218;9.882;2022-09-09T05:38:39;100139.75;;;14.95;100.00
43770;BME280;6597;52.218;9.882;2022-09-09T05:41:06;100127.13;;;15.01;100.00
43770;BME280;6597;52.218;9.882;2022-09-09T05:43:34;100129.47;;;15.05;100.00
43770;BME280;6597;52.218;9.882;2022-09-09T05:46:03;100135.41;;;15.09;100.00
43770;BME280;6597;52.218;9.882;2022-09-09T05:48:32;100131.50;;;15.14;100.00
43770;BME280;6597;52.218;9.882;2022-09-09T05:51:01;100134.59;;;15.21;100.00
43770;BME280;6597;52.218;9.882;2022-09-09T05:53:29;100135.06;;;15.27;100.00
43770;BME280;6597;52.218;9.882;2022-09-09T05:55:59;100134.50;;;15.37;100.00
43770;BME280;6597;52.218;9.882;2022-09-09T05:58:27;100141.91;;;15.44;100.00
43770;BME280;6597;52.218;9.882;2022-09-09T06:01:00;100145.75;;;15.53;100.00
43770;BME280;6597;52.218;9.882;2022-09-09T06:03:27;100145.44;;;15.57;100.00
43770;BME280;6597;52.218;9.882;2022-09-09T06:05:57;100149.44;;;15.65;100.00
43770;BME280;6597;52.218;9.882;2022-09-09T06:08:26;100145.94;;;15.64;100.00
43770;BME280;6597;52.218;9.882;2022-09-09T06:10:52;100148.28;;;15.69;100.00
43770;BME280;6597;52.218;9.882;2022-09-09T06:13:19;100151.78;;;15.69;100.00
43770;BME280;6597;52.218;9.882;2022-09-09T06:15:49;100148.09;;;15.72;100.00
43770;BME280;6597;52.218;9.882;2022-09-09T06:18:17;100154.03;;;15.75;100.00
43770;BME280;6597;52.218;9.882;2022-09-09T06:20:53;100160.81;;;15.79;100.00
43770;BME280;6597;52.218;9.882;2022-09-09T06:23:20;100157.53;;;15.88;100.00
43770;BME280;6597;52.218;9.882;2022-09-09T06:25:48;100146.38;;;15.98;100.00
43770;BME280;6597;52.218;9.882;2022-09-09T06:28:15;100146.47;;;16.09;100.00
43770;BME280;6597;52.218;9.882;2022-09-09T06:30:42;100149.13;;;16.22;100.00
43770;BME280;6597;52.218;9.882;2022-09-09T06:33:09;100145.66;;;16.34;100.00
43770;BME280;6597;52.218;9.882;2022-09-09T06:35:36;100145.03;;;16.43;100.00
43770;BME280;6597;52.218;9.882;2022-09-09T06:38:03;100135.38;;;16.55;100.00
43770;BME280;6597;52.218;9.882;2022-09-09T06:40:31;100141.22;;;16.72;100.00
43770;BME280;6597;52.218;9.882;2022-09-09T06:43:00;100131.22;;;16.89;100.00
43770;BME280;6597;52.218;9.882;2022-09-09T06:45:39;100136.31;;;17.04;100.00
43770;BME280;6597;52.218;9.882;2022-09-09T06:48:07;100138.06;;;17.17;100.00
43770;BME280;6597;52.218;9.882;2022-09-09T06:50:34;100136.69;;;17.24;100.00
43770;BME280;6597;52.218;9.882;2022-09-09T06:53:01;100125.00;;;17.26;95.60
43770;BME280;6597;52.218;9.882;2022-09-09T06:55:28;100134.44;;;17.30;95.74
43770;BME280;6597;52.218;9.882;2022-09-09T06:57:55;100134.81;;;17.37;97.73
43770;BME280;6597;52.218;9.882;2022-09-09T07:00:24;100137.53;;;17.48;97.08
43770;BME280;6597;52.218;9.882;2022-09-09T07:02:50;100139.06;;;17.63;96.25
43770;BME280;6597;52.218;9.882;2022-09-09T07:05:17;100140.59;;;17.79;95.20
43770;BME280;6597;52.218;9.882;2022-09-09T07:07:45;100140.44;;;17.93;95.36
43770;BME280;6597;52.218;9.882;2022-09-09T07:10:14;100141.19;;;18.06;95.41
43770;BME280;6597;52.218;9.882;2022-09-09T07:12:41;100144.16;;;18.25;90.97
43770;BME280;6597;52.218;9.882;2022-09-09T07:15:10;100142.75;;;18.55;88.49
43770;BME280;6597;52.218;9.882;2022-09-09T07:17:39;100141.09;;;18.87;87.26
43770;BME280;6597;52.218;9.882;2022-09-09T07:20:06;100146.97;;;19.13;85.96
43770;BME280;6597;52.218;9.882;2022-09-09T07:22:33;100145.59;;;19.41;84.79
43770;BME280;6597;52.218;9.882;2022-09-09T07:25:00;100150.44;;;19.58;82.01
43770;BME280;6597;52.218;9.882;2022-09-09T07:27:28;100154.09;;;19.78;81.20
43770;BME280;6597;52.218;9.882;2022-09-09T07:29:55;100151.53;;;20.09;80.90
43770;BME280;6597;52.218;9.882;2022-09-09T07:32:23;100150.66;;;20.40;80.88
43770;BME280;6597;52.218;9.882;2022-09-09T07:34:52;100149.41;;;20.65;76.90
43770;BME280;6597;52.218;9.882;2022-09-09T07:37:19;100153.00;;;20.85;74.13
43770;BME280;6597;52.218;9.882;2022-09-09T07:39:47;100152.03;;;20.86;73.96
43770;BME280;6597;52.218;9.882;2022-09-09T07:42:17;100146.41;;;20.89;74.60
43770;BME280;6597;52.218;9.882;2022-09-09T07:44:44;100153.19;;;20.93;73.95
43770;BME280;6597;52.218;9.882;2022-09-09T07:47:13;100151.50;;;21.02;73.80
43770;BME280;6597;52.218;9.882;2022-09-09T07:49:44;100150.41;;;21.04;72.39
43770;BME280;6597;52.218;9.882;2022-09-09T07:52:14;100151.63;;;21.31;72.89
43770;BME280;6597;52.218;9.882;2022-09-09T07:54:44;100158.28;;;21.56;71.51
43770;BME280;6597;52.218;9.882;2022-09-09T07:57:12;100166.31;;;21.56;70.47
43770;BME280;6597;52.218;9.882;2022-09-09T07:59:40;100166.88;;;21.50;69.89
43770;BME280;6597;52.218;9.882;2022-09-09T08:02:08;100167.31;;;21.15;69.15
43770;BME280;6597;52.218;9.882;2022-09-09T08:04:35;100163.16;;;20.70;70.31
43770;BME280;6597;52.218;9.882;2022-09-09T08:07:02;100162.53;;;20.36;73.06
43770;BME280;6597;52.218;9.882;2022-09-09T08:09:34;100164.28;;;20.26;74.70
43770;BME280;6597;52.218;9.882;2022-09-09T08:12:19;100168.81;;;20.14;75.60
43770;BME280;6597;52.218;9.882;2022-09-09T08:14:46;100166.81;;;20.07;76.13
43770;BME280;6597;52.218;9.882;2022-09-09T08:17:14;100170.78;;;20.12;77.01
43770;BME280;6597;52.218;9.882;2022-09-09T08:19:41;100172.25;;;20.05;77.01
43770;BME280;6597;52.218;9.882;2022-09-09T08:22:14;100167.91;;;20.04;77.39
43770;BME280;6597;52.218;9.882;2022-09-09T08:24:42;100177.97;;;20.01;75.52
43770;BME280;6597;52.218;9.882;2022-09-09T08:27:08;100169.41;;;19.97;75.57
43770;BME280;6597;52.218;9.882;2022-09-09T08:29:36;100171.47;;;19.94;75.31
43770;BME280;6597;52.218;9.882;2022-09-09T08:32:04;100173.56;;;19.90;75.86
43770;BME280;6597;52.218;9.882;2022-09-09T08:34:31;100167.72;;;19.96;76.77
43770;BME280;6597;52.218;9.882;2022-09-09T08:37:03;100172.78;;;19.99;75.28
43770;BME280;6597;52.218;9.882;2022-09-09T08:39:39;100169.78;;;19.93;76.37
43770;BME280;6597;52.218;9.882;2022-09-09T08:42:27;100171.31;;;19.74;75.83
43770;BME280;6597;52.218;9.882;2022-09-09T08:45:24;100179.09;;;19.98;75.65
43770;BME280;6597;52.218;9.882;2022-09-09T08:48:04;100179.03;;;20.09;75.46
43770;BME280;6597;52.218;9.882;2022-09-09T08:50:35;100180.59;;;20.12;74.49
43770;BME280;6597;52.218;9.882;2022-09-09T08:53:22;100186.72;;;20.24;73.03
43770;BME280;6597;52.218;9.882;2022-09-09T08:55:53;100184.47;;;20.40;73.74
43770;BME280;6597;52.218;9.882;2022-09-09T08:58:32;100189.19;;;20.78;75.30
43770;BME280;6597;52.218;9.882;2022-09-09T09:01:18;100181.13;;;20.99;71.22
43770;BME280;6597;52.218;9.882;2022-09-09T09:03:57;100183.41;;;21.03;71.62
43770;BME280;6597;52.218;9.882;2022-09-09T09:06:38;100184.81;;;21.07;71.42
43770;BME280;6597;52.218;9.882;2022-09-09T09:09:17;100176.53;;;21.10;72.98
43770;BME280;6597;52.218;9.882;2022-09-09T09:11:49;100182.69;;;21.01;71.88
43770;BME280;6597;52.218;9.882;2022-09-09T09:14:20;100188.00;;;20.92;72.27
43770;BME280;6597;52.218;9.882;2022-09-09T09:16:53;100188.56;;;20.95;71.58
43770;BME280;6597;52.218;9.882;2022-09-09T09:19:20;100200.69;;;20.78;70.52
43770;BME280;6597;52.218;9.882;2022-09-09T09:21:53;100196.28;;;20.68;71.47
43770;BME280;6597;52.218;9.882;2022-09-09T09:24:27;100196.03;;;20.71;73.17
43770;BME280;6597;52.218;9.882;2022-09-09T09:26:59;100191.72;;;20.79;71.48
43770;BME280;6597;52.218;9.882;2022-09-09T09:29:32;100186.91;;;21.04;71.28
43770;BME280;6597;52.218;9.882;2022-09-09T09:32:02;100196.31;;;21.38;69.40
43770;BME280;6597;52.218;9.882;2022-09-09T09:34:30;100180.22;;;21.79;68.39
43770;BME280;6597;52.218;9.882;2022-09-09T09:36:57;100185.75;;;21.87;68.83
43770;BME280;6597;52.218;9.882;2022-09-09T09:39:30;100188.25;;;21.79;67.53
43770;BME280;6597;52.218;9.882;2022-09-09T09:42:08;100187.25;;;21.60;68.06
43770;BME280;6597;52.218;9.882;2022-09-09T09:44:38;100188.50;;;21.47;68.02
43770;BME280;6597;52.218;9.882;2022-09-09T09:47:13;100176.78;;;21.28;69.89
43770;BME280;6597;52.218;9.882;2022-09-09T09:49:51;100186.28;;;21.21;69.89
43770;BME280;6597;52.218;9.882;2022-09-09T09:52:21;100171.88;;;21.03;69.25
43770;BME280;6597;52.218;9.882;2022-09-09T09:54:49;100171.56;;;20.96;70.64
43770;BME280;6597;52.218;9.882;2022-09-09T09:57:18;100174.13;;;20.98;69.66
43770;BME280;6597;52.218;9.882;2022-09-09T10:00:00;100173.34;;;21.17;70.80
43770;BME280;6597;52.218;9.882;2022-09-09T10:02:37;100173.69;;;21.23;70.47
43770;BME280;6597;52.218;9.882;2022-09-09T10:05:13;100168.44;;;21.22;70.83
43770;BME280;6597;52.218;9.882;2022-09-09T10:07:44;100171.75;;;21.04;67.26
43770;BME280;6597;52.218;9.882;2022-09-09T10:10:15;100171.00;;;20.93;69.98
43770;BME280;6597;52.218;9.882;2022-09-09T10:12:54;100160.31;;;20.83;70.99
43770;BME280;6597;52.218;9.882;2022-09-09T10:15:32;100156.78;;;20.83;70.73
43770;BME280;6597;52.218;9.882;2022-09-09T10:18:12;100159.09;;;21.06;70.42
43770;BME280;6597;52.218;9.882;2022-09-09T10:20:46;100162.78;;;21.55;68.58
43770;BME280;6597;52.218;9.882;2022-09-09T10:23:25;100163.34;;;21.68;68.46
43770;BME280;6597;52.218;9.882;2022-09-09T10:26:15;100160.13;;;21.65;66.54
43770;BME280;6597;52.218;9.882;2022-09-09T10:28:57;100161.09;;;21.73;66.84
43770;BME280;6597;52.218;9.882;2022-09-09T10:31:35;100155.94;;;21.82;65.65
43770;BME280;6597;52.218;9.882;2022-09-09T10:34:13;100163.09;;;21.91;64.26
43770;BME280;6597;52.218;9.882;2022-09-09T10:36:47;100160.38;;;22.49;65.24
43770;BME280;6597;52.218;9.882;2022-09-09T10:39:20;100146.38;;;23.11;61.02
43770;BME280;6597;52.218;9.882;2022-09-09T10:41:54;100155.34;;;23.47;56.12
43770;BME280;6597;52.218;9.882;2022-09-09T10:44:40;100155.75;;;23.88;56.40
43770;BME280;6597;52.218;9.882;2022-09-09T10:47:33;100159.69;;;24.37;59.46
43770;BME280;6597;52.218;9.882;2022-09-09T10:50:26;100145.66;;;24.69;57.52
43770;BME280;6597;52.218;9.882;2022-09-09T10:53:01;100149.53;;;24.41;57.81
43770;BME280;6597;52.218;9.882;2022-09-09T10:55:35;100145.25;;;23.59;59.37
43770;BME280;6597;52.218;9.882;2022-09-09T10:58:05;100146.53;;;23.10;59.88
43770;BME280;6597;52.218;9.882;2022-09-09T11:00:38;100150.31;;;22.80;62.06
43770;BME280;6597;52.218;9.882;2022-09-09T11:03:14;100148.81;;;22.58;62.88
43770;BME280;6597;52.218;9.882;2022-09-09T11:05:46;100147.31;;;22.36;61.96
43770;BME280;6597;52.218;9.882;2022-09-09T11:08:18;100146.78;;;22.23;62.64
43770;BME280;6597;52.218;9.882;2022-09-09T11:10:49;100153.53;;;22.08;62.52
43770;BME280;6597;52.218;9.882;2022-09-09T11:13:25;100161.28;;;21.82;62.49
43770;BME280;6597;52.218;9.882;2022-09-09T11:16:01;100161.38;;;21.61;61.71
43770;BME280;6597;52.218;9.882;2022-09-09T11:18:36;100165.56;;;21.44;62.91
43770;BME280;6597;52.218;9.882;2022-09-09T11:21:09;100161.75;;;21.27;63.41
43770;BME280;6597;52.218;9.882;2022-09-09T11:23:43;100159.72;;;21.20;64.96
43770;BME280;6597;52.218;9.882;2022-09-09T11:26:16;100161.22;;;21.12;65.64
43770;BME280;6597;52.218;9.882;2022-09-09T11:28:54;100164.63;;;21.15;65.44
43770;BME280;6597;52.218;9.882;2022-09-09T11:31:38;100172.44;;;21.06;65.43
43770;BME280;6597;52.218;9.882;2022-09-09T11:34:19;100177.22;;;21.03;64.03
43770;BME280;6597;52.218;9.882;2022-09-09T11:37:24;100176.91;;;20.96;65.09
43770;BME280;6597;52.218;9.882;2022-09-09T11:40:09;100187.28;;;20.90;66.98
43770;BME280;6597;52.218;9.882;2022-09-09T11:42:42;100197.78;;;20.81;69.98
43770;BME280;6597;52.218;9.882;2022-09-09T11:45:20;100195.84;;;20.63;70.78
43770;BME280;6597;52.218;9.882;2022-09-09T11:47:54;100193.94;;;20.33;71.76
43770;BME280;6597;52.218;9.882;2022-09-09T11:50:31;100187.41;;;20.05;73.14
43770;BME280;6597;52.218;9.882;2022-09-09T11:53:18;100189.31;;;19.82;73.94
43770;BME280;6597;52.218;9.882;2022-09-09T11:55:48;100188.28;;;19.62;72.55
43770;BME280;6597;52.218;9.882;2022-09-09T11:58:25;100178.97;;;19.45;74.29
43770;BME280;6597;52.218;9.882;2022-09-09T12:00:52;100185.16;;;19.35;74.62
43770;BME280;6597;52.218;9.882;2022-09-09T12:03:35;100186.88;;;19.24;74.33
43770;BME280;6597;52.218;9.882;2022-09-09T12:06:12;100183.25;;;19.14;75.00
43770;BME280;6597;52.218;9.882;2022-09-09T12:08:43;100174.78;;;19.09;75.56
43770;BME280;6597;52.218;9.882;2022-09-09T12:11:10;100180.72;;;19.13;75.83
43770;BME280;6597;52.218;9.882;2022-09-09T12:13:37;100178.66;;;19.16;76.22
43770;BME280;6597;52.218;9.882;2022-09-09T12:16:04;100172.59;;;19.14;75.98
43770;BME280;6597;52.218;9.882;2022-09-09T12:18:33;100166.31;;;19.15;76.70
43770;BME280;6597;52.218;9.882;2022-09-09T12:21:05;100166.69;;;19.22;76.86
43770;BME280;6597;52.218;9.882;2022-09-09T12:23:44;100173.09;;;19.19;76.14
43770;BME280;6597;52.218;9.882;2022-09-09T12:26:28;100170.19;;;19.11;76.32
43770;BME280;6597;52.218;9.882;2022-09-09T12:29:14;100180.00;;;19.11;77.41
43770;BME280;6597;52.218;9.882;2022-09-09T12:31:47;100174.06;;;19.07;77.79
43770;BME280;6597;52.218;9.882;2022-09-09T12:34:27;100167.06;;;19.06;78.58
43770;BME280;6597;52.218;9.882;2022-09-09T12:36:58;100169.72;;;19.06;79.26
43770;BME280;6597;52.218;9.882;2022-09-09T12:39:33;100163.44;;;19.07;80.08
43770;BME280;6597;52.218;9.882;2022-09-09T12:42:01;100167.78;;;19.08;80.13
43770;BME280;6597;52.218;9.882;2022-09-09T12:44:29;100164.16;;;19.09;81.25
43770;BME280;6597;52.218;9.882;2022-09-09T12:47:00;100165.13;;;19.08;81.73
43770;BME280;6597;52.218;9.882;2022-09-09T12:49:30;100167.91;;;19.07;81.80
43770;BME280;6597;52.218;9.882;2022-09-09T12:52:01;100174.91;;;19.08;82.47
43770;BME280;6597;52.218;9.882;2022-09-09T12:54:29;100180.13;;;19.09;83.22
43770;BME280;6597;52.218;9.882;2022-09-09T12:56:57;100174.44;;;19.03;80.82
43770;BME280;6597;52.218;9.882;2022-09-09T12:59:25;100184.00;;;19.05;81.33
43770;BME280;6597;52.218;9.882;2022-09-09T13:01:56;100178.53;;;19.07;82.29
43770;BME280;6597;52.218;9.882;2022-09-09T13:04:23;100176.75;;;18.96;80.40
43770;BME280;6597;52.218;9.882;2022-09-09T13:06:50;100178.06;;;19.02;82.80
43770;BME280;6597;52.218;9.882;2022-09-09T13:09:18;100175.88;;;19.07;81.93
43770;BME280;6597;52.218;9.882;2022-09-09T13:11:49;100168.63;;;19.09;84.08
43770;BME280;6597;52.218;9.882;2022-09-09T13:14:18;100176.84;;;19.17;83.63
43770;BME280;6597;52.218;9.882;2022-09-09T13:16:55;100181.69;;;19.23;82.51
43770;BME280;6597;52.218;9.882;2022-09-09T13:19:23;100177.69;;;19.28;81.24
43770;BME280;6597;52.218;9.882;2022-09-09T13:21:53;100170.66;;;19.27;79.58
43770;BME280;6597;52.218;9.882;2022-09-09T13:24:26;100171.75;;;19.36;80.45